Time;durP1;ratioP1;P1;durP2;ratioP2;P2;SDS_P1;SDS_P2;PMS_P1;PMS_P2;Temp;Humidity;BMP_temperature;BMP_pressure;BME280_temperature;BME280_humidity;BME280_pressure;Samples;Min_cycle;Max_cycle;Signal;HPM_P1;HPM_P2
2021/08/29 00:01:13;;;;;;;49.23;34.00;;;;;;;17.96;88.21;100671.09;1757801;81;20865;-75
2021/08/29 00:03:40;;;;;;;48.38;33.58;;;;;;;17.94;88.27;100673.52;1757918;81;20900;-74
2021/08/29 00:06:07;;;;;;;48.68;31.80;;;;;;;17.92;88.24;100676.33;1758104;81;22142;-75
2021/08/29 00:08:35;;;;;;;46.95;32.75;;;;;;;17.91;88.24;100674.63;1759498;81;20825;-73
2021/08/29 00:11:02;;;;;;;43.55;31.62;;;;;;;17.89;88.27;100677.91;1759922;78;21503;-73
2021/08/29 00:13:30;;;;;;;40.78;30.25;;;;;;;17.88;88.28;100675.41;1758240;81;20988;-74
2021/08/29 00:15:57;;;;;;;46.28;33.90;;;;;;;17.85;88.26;100677.83;1757981;81;21007;-74
2021/08/29 00:18:24;;;;;;;45.85;32.50;;;;;;;17.83;88.28;100679.81;1758129;81;21184;-75
2021/08/29 00:20:51;;;;;;;57.83;35.00;;;;;;;17.81;88.50;100670.66;1757882;80;20971;-74
2021/08/29 00:23:18;;;;;;;57.73;36.50;;;;;;;17.81;88.71;100677.28;1758303;81;20904;-74
2021/08/29 00:25:45;;;;;;;47.55;33.45;;;;;;;17.81;88.84;100676.42;1758019;81;21326;-75
2021/08/29 00:28:12;;;;;;;48.87;34.25;;;;;;;17.80;89.10;100678.21;1758072;81;21382;-77
2021/08/29 00:30:39;;;;;;;45.65;32.55;;;;;;;17.81;89.13;100671.12;1756288;81;21124;-75
2021/08/29 00:33:07;;;;;;;48.58;31.97;;;;;;;17.81;89.19;100670.66;1744440;80;20869;-75
2021/08/29 00:35:35;;;;;;;43.68;30.68;;;;;;;17.81;89.17;100668.46;1744472;81;20845;-75
2021/08/29 00:38:02;;;;;;;53.13;33.45;;;;;;;17.80;89.09;100667.59;1744536;82;20961;-75
2021/08/29 00:40:29;;;;;;;49.95;31.15;;;;;;;17.79;89.04;100669.09;1744644;81;20901;-75
2021/08/29 00:42:56;;;;;;;41.83;32.28;;;;;;;17.78;89.07;100665.57;1744586;81;21981;-75
2021/08/29 00:45:26;;;;;;;47.48;31.90;;;;;;;17.78;89.12;100671.37;1744541;81;20932;-75
2021/08/29 00:47:52;;;;;;;54.38;31.48;;;;;;;17.76;88.96;100671.53;1744719;82;20956;-75
2021/08/29 00:50:20;;;;;;;45.48;31.82;;;;;;;17.75;89.01;100677.80;1744583;80;21461;-76
2021/08/29 00:52:47;;;;;;;49.35;30.32;;;;;;;17.74;88.87;100672.16;1744571;81;21418;-75
2021/08/29 00:55:13;;;;;;;44.23;29.80;;;;;;;17.72;88.73;100672.77;1744514;81;21480;-74
2021/08/29 00:57:42;;;;;;;47.08;30.20;;;;;;;17.70;88.72;100672.08;1749530;80;21025;-74
2021/08/29 01:00:11;;;;;;;41.55;31.42;;;;;;;17.69;88.78;100663.75;1780614;79;20868;-74
2021/08/29 01:02:40;;;;;;;47.13;29.98;;;;;;;17.69;88.92;100663.75;1751253;80;20927;-75
2021/08/29 01:05:24;;;;;;;50.28;32.42;;;;;;;17.71;89.15;100655.66;1781369;80;21279;-74
2021/08/29 01:08:06;;;;;;;45.52;30.60;;;;;;;17.71;89.06;100648.54;1756406;80;21580;-75
2021/08/29 01:10:39;;;;;;;45.03;31.62;;;;;;;17.71;88.74;100655.66;1781215;80;20899;-75
2021/08/29 01:13:17;;;;;;;39.45;27.73;;;;;;;17.68;88.46;100654.13;1781029;80;20868;-76
2021/08/29 01:15:46;;;;;;;41.85;27.58;;;;;;;17.65;88.14;100655.71;1780999;80;20916;-75
2021/08/29 01:18:15;;;;;;;43.35;27.40;;;;;;;17.61;87.85;100659.14;1780785;79;20915;-74
2021/08/29 01:21:05;;;;;;;46.05;29.80;;;;;;;17.58;87.82;100653.26;1780940;79;21085;-75
2021/08/29 01:23:32;;;;;;;37.63;27.82;;;;;;;17.55;88.01;100648.24;1750279;80;21627;-74
2021/08/29 01:26:05;;;;;;;41.77;27.32;;;;;;;17.50;88.19;100649.98;1781338;80;20966;-75
2021/08/29 01:28:57;;;;;;;40.12;28.55;;;;;;;17.48;88.39;100647.95;1780959;79;21326;-75
2021/08/29 01:31:27;;;;;;;38.73;26.87;;;;;;;17.46;88.32;100651.22;1780276;80;21402;-75
2021/08/29 01:33:56;;;;;;;39.90;27.52;;;;;;;17.43;88.41;100655.94;1743831;82;21765;-76
2021/08/29 01:36:23;;;;;;;45.25;28.87;;;;;;;17.40;88.43;100659.70;1743827;82;20893;-75
2021/08/29 01:38:50;;;;;;;40.80;27.07;;;;;;;17.38;88.63;100641.77;1717432;83;20881;-75
2021/08/29 01:41:18;;;;;;;42.50;27.30;;;;;;;17.36;88.76;100644.58;1780877;80;20872;-75
2021/08/29 01:43:46;;;;;;;42.88;28.65;;;;;;;17.35;88.95;100641.56;1780735;80;20860;-74
2021/08/29 01:46:14;;;;;;;40.88;28.52;;;;;;;17.34;89.05;100639.03;1750719;79;21992;-75
2021/08/29 01:48:44;;;;;;;38.90;26.77;;;;;;;17.33;89.14;100643.51;1778103;80;20864;-75
2021/08/29 01:51:12;;;;;;;42.03;28.52;;;;;;;17.33;89.26;100647.48;1780736;79;20916;-75
2021/08/29 01:53:41;;;;;;;41.48;27.05;;;;;;;17.32;89.36;100647.14;1780340;80;20942;-74
2021/08/29 01:56:10;;;;;;;43.33;28.20;;;;;;;17.31;89.22;100644.13;1749302;80;21454;-74
2021/08/29 01:58:45;;;;;;;40.12;27.20;;;;;;;17.30;89.03;100645.11;1780180;80;21429;-75
2021/08/29 02:01:15;;;;;;;38.70;26.00;;;;;;;17.28;88.77;100647.06;1780530;79;21484;-74
2021/08/29 02:03:44;;;;;;;36.28;25.85;;;;;;;17.25;88.58;100642.01;1781058;80;20963;-74
2021/08/29 02:06:20;;;;;;;42.70;27.05;;;;;;;17.22;88.36;100642.29;1779104;80;20936;-75
2021/08/29 02:09:01;;;;;;;38.78;26.42;;;;;;;17.20;88.20;100642.91;1780744;80;20880;-74
2021/08/29 02:11:36;;;;;;;41.63;26.35;;;;;;;17.16;88.14;100648.98;1780705;80;21102;-74
2021/08/29 02:14:04;;;;;;;35.65;24.87;;;;;;;17.13;88.14;100642.60;1780738;80;21346;-74
2021/08/29 02:16:40;;;;;;;32.03;24.92;;;;;;;17.09;88.22;100645.16;1743878;82;20904;-74
2021/08/29 02:19:07;;;;;;;40.30;25.72;;;;;;;17.08;88.41;100638.69;1717757;83;21403;-74
2021/08/29 02:21:35;;;;;;;38.02;27.10;;;;;;;17.06;88.71;100641.96;1780768;80;20864;-75
2021/08/29 02:24:03;;;;;;;36.23;26.95;;;;;;;17.05;88.97;100639.80;1780895;80;21389;-74
2021/08/29 02:26:31;;;;;;;39.33;28.77;;;;;;;17.05;89.16;100642.45;1780788;80;20919;-74
2021/08/29 02:28:59;;;;;;;38.20;27.60;;;;;;;17.05;89.21;100632.32;1779418;79;20908;-74
2021/08/29 02:31:30;;;;;;;38.50;27.32;;;;;;;17.06;89.36;100643.28;1781601;79;20915;-75
2021/08/29 02:33:58;;;;;;;37.70;26.62;;;;;;;17.05;89.29;100640.27;1786392;80;20995;-75
2021/08/29 02:36:26;;;;;;;35.90;25.25;;;;;;;17.03;89.19;100647.05;1786450;80;21314;-74
2021/08/29 02:38:52;;;;;;;40.43;26.35;;;;;;;17.01;88.89;100642.36;1786497;80;21412;-74
2021/08/29 02:41:20;;;;;;;37.90;24.10;;;;;;;16.99;88.72;100644.30;1786439;79;20880;-75
2021/08/29 02:43:48;;;;;;;35.38;24.00;;;;;;;16.96;88.65;100645.41;1709964;80;21471;-75
2021/08/29 02:46:14;;;;;;;33.53;24.75;;;;;;;16.93;88.47;100649.63;1758185;80;20895;-74
2021/08/29 02:48:44;;;;;;;34.30;24.37;;;;;;;16.91;88.50;100645.44;1786486;80;21986;-74
2021/08/29 02:51:12;;;;;;;41.02;25.10;;;;;;;16.88;88.50;100647.88;1786452;79;20879;-73
2021/08/29 02:53:42;;;;;;;36.60;23.27;;;;;;;16.86;88.56;100643.69;1786675;80;20879;-74
2021/08/29 02:56:09;;;;;;;31.75;23.65;;;;;;;16.85;88.65;100646.83;1786476;80;20994;-73
2021/08/29 02:58:38;;;;;;;38.10;23.05;;;;;;;16.82;88.82;100645.75;1786416;80;21487;-74
2021/08/29 03:01:19;;;;;;;32.60;22.05;;;;;;;16.81;88.97;100648.06;1786017;80;21134;-74
2021/08/29 03:03:50;;;;;;;32.53;22.25;;;;;;;16.79;89.06;100644.67;1783053;80;20919;-73
2021/08/29 03:06:17;;;;;;;29.10;21.45;;;;;;;16.77;89.20;100650.58;1786653;79;20884;-73
2021/08/29 03:08:47;;;;;;;25.88;20.80;;;;;;;16.77;89.43;100648.77;1786470;80;20888;-74
2021/08/29 03:11:14;;;;;;;27.22;21.00;;;;;;;16.79;89.64;100645.98;1786715;80;20887;-74
2021/08/29 03:13:42;;;;;;;26.10;20.68;;;;;;;16.81;89.72;100644.08;1786432;79;22015;-75
2021/08/29 03:16:10;;;;;;;27.42;19.60;;;;;;;16.85;89.85;100652.12;1786849;80;20888;-76
2021/08/29 03:18:46;;;;;;;31.45;20.68;;;;;;;16.88;89.72;100645.72;1786404;80;21389;-73
2021/08/29 03:21:32;;;;;;;28.90;20.48;;;;;;;16.89;89.49;100655.33;1749154;82;20976;-74
2021/08/29 03:23:59;;;;;;;28.57;20.68;;;;;;;16.91;89.61;100665.31;1722820;83;21031;-76
2021/08/29 03:26:26;;;;;;;26.85;22.98;;;;;;;16.93;89.65;100657.58;1723231;83;21339;-74
2021/08/29 03:28:55;;;;;;;31.27;23.27;;;;;;;16.94;89.65;100659.73;1722654;82;21442;-74
2021/08/29 03:31:23;;;;;;;34.65;22.58;;;;;;;17.00;89.60;100663.19;1722728;83;20909;-74
2021/08/29 03:33:49;;;;;;;37.25;22.13;;;;;;;17.01;89.46;100663.56;1722272;83;20955;-74
2021/08/29 03:36:21;;;;;;;27.50;21.57;;;;;;;17.03;89.29;100665.59;1718885;82;20885;-74
2021/08/29 03:38:50;;;;;;;30.70;21.55;;;;;;;17.04;88.92;100665.93;1752027;82;21129;-74
2021/08/29 03:41:22;;;;;;;26.33;21.17;;;;;;;17.04;88.70;100664.61;1751889;81;20841;-74
2021/08/29 03:43:48;;;;;;;32.65;21.90;;;;;;;17.05;88.69;100666.30;1751696;81;20924;-75
2021/08/29 03:46:16;;;;;;;30.45;22.00;;;;;;;17.06;88.67;100661.83;1752355;82;20892;-75
2021/08/29 03:48:45;;;;;;;31.27;22.48;;;;;;;17.07;88.75;100666.98;1752273;82;20894;-74
2021/08/29 03:51:16;;;;;;;43.00;23.38;;;;;;;17.10;88.86;100667.22;1752133;82;21108;-75
2021/08/29 03:53:44;;;;;;;30.70;22.55;;;;;;;17.12;88.92;100655.52;1752312;82;21485;-74
2021/08/29 03:56:11;;;;;;;29.50;21.57;;;;;;;17.15;89.00;100653.91;1752743;82;20916;-75
2021/08/29 03:58:40;;;;;;;30.35;24.07;;;;;;;17.19;89.03;100651.35;1753012;82;21030;-74
2021/08/29 04:01:08;;;;;;;33.20;22.48;;;;;;;17.23;88.98;100651.07;1753252;82;20857;-75
2021/08/29 04:03:35;;;;;;;27.93;22.25;;;;;;;17.27;89.10;100652.48;1755339;80;21525;-74
2021/08/29 04:06:04;;;;;;;30.32;22.45;;;;;;;17.31;89.01;100656.55;1753822;80;20893;-74
2021/08/29 04:08:42;;;;;;;27.55;21.82;;;;;;;17.34;88.89;100661.11;1752934;82;20901;-74
2021/08/29 04:11:09;;;;;;;26.77;19.80;;;;;;;17.38;88.81;100665.14;1752383;82;20893;-75
2021/08/29 04:13:39;;;;;;;24.30;20.65;;;;;;;17.44;88.67;100666.92;1752332;82;20929;-73
2021/08/29 04:16:09;;;;;;;27.37;21.48;;;;;;;17.48;88.59;100661.20;1752416;82;21079;-74
2021/08/29 04:18:42;;;;;;;27.13;21.45;;;;;;;17.54;88.53;100663.78;1726423;82;20932;-74
2021/08/29 04:21:10;;;;;;;29.00;22.05;;;;;;;17.60;88.31;100655.29;1752589;82;21453;-73
2021/08/29 04:23:38;;;;;;;29.40;22.27;;;;;;;17.66;88.15;100646.80;1752340;82;20904;-74
2021/08/29 04:26:06;;;;;;;31.35;21.42;;;;;;;17.73;87.92;100647.08;1752640;82;20904;-75
2021/08/29 04:28:34;;;;;;;35.60;23.40;;;;;;;17.81;87.75;100649.89;1752271;82;20991;-75
2021/08/29 04:31:06;;;;;;;32.70;21.27;;;;;;;17.88;87.66;100643.08;1752282;82;20920;-75
2021/08/29 04:33:35;;;;;;;31.23;22.07;;;;;;;17.96;87.62;100645.89;1752431;82;20896;-76
2021/08/29 04:36:20;;;;;;;26.77;20.65;;;;;;;18.07;87.48;100648.03;1752283;81;20940;-75
2021/08/29 04:38:47;;;;;;;25.48;20.85;;;;;;;18.19;87.39;100641.62;1752517;81;21389;-75
2021/08/29 04:41:14;;;;;;;28.17;19.82;;;;;;;18.33;87.19;100646.98;1752173;82;21088;-75
2021/08/29 04:43:41;;;;;;;27.27;20.12;;;;;;;18.48;86.90;100635.43;1752651;82;21362;-74
2021/08/29 04:46:08;;;;;;;25.90;19.85;;;;;;;18.66;86.73;100647.48;1752467;82;21026;-74
2021/08/29 04:48:37;;;;;;;34.70;20.48;;;;;;;18.90;86.49;100645.20;1752295;82;20941;-74
2021/08/29 04:51:04;;;;;;;26.73;18.67;;;;;;;19.20;86.00;100641.41;1752343;82;20833;-74
2021/08/29 04:53:32;;;;;;;25.05;19.90;;;;;;;19.54;85.01;100635.98;1727080;82;20985;-75
2021/08/29 04:55:59;;;;;;;24.70;19.95;;;;;;;19.87;83.99;100631.84;1752171;82;21505;-74
2021/08/29 04:58:27;;;;;;;25.85;20.00;;;;;;;20.24;83.18;100640.16;1752550;82;20933;-73
2021/08/29 05:00:54;;;;;;;23.90;18.30;;;;;;;20.74;81.92;100636.03;1752219;81;21043;-74
2021/08/29 05:03:21;;;;;;;18.52;15.55;;;;;;;21.30;80.06;100630.63;1752042;82;20897;-73
2021/08/29 05:05:49;;;;;;;21.07;17.80;;;;;;;21.91;78.34;100632.61;1726556;82;21861;-74
2021/08/29 05:08:17;;;;;;;21.12;16.45;;;;;;;22.55;76.37;100632.78;1752115;82;20928;-74
2021/08/29 05:10:46;;;;;;;19.37;15.13;;;;;;;23.17;73.58;100634.29;1726723;82;21414;-74
2021/08/29 05:13:14;;;;;;;18.65;13.80;;;;;;;23.78;71.77;100622.41;1752457;82;20904;-75
2021/08/29 05:15:43;;;;;;;18.85;15.30;;;;;;;24.38;69.54;100611.88;1752254;82;21562;-75
2021/08/29 05:18:12;;;;;;;16.70;14.43;;;;;;;24.96;67.02;100614.78;1752599;82;21124;-74
2021/08/29 05:20:40;;;;;;;14.70;12.95;;;;;;;25.50;65.00;100613.59;1751171;82;21023;-74
2021/08/29 05:23:26;;;;;;;16.52;13.28;;;;;;;26.00;63.54;100609.98;1752323;82;21386;-73
2021/08/29 05:26:01;;;;;;;15.40;13.62;;;;;;;26.52;61.07;100607.88;1752166;82;21457;-73
2021/08/29 05:28:30;;;;;;;20.92;14.18;;;;;;;26.97;59.83;100602.16;1752481;82;21469;-73
2021/08/29 05:30:58;;;;;;;16.35;12.88;;;;;;;27.34;58.11;100596.84;1752134;82;21177;-72
2021/08/29 05:33:25;;;;;;;18.07;13.03;;;;;;;27.71;55.01;100593.30;1752233;82;21398;-73
2021/08/29 05:35:53;;;;;;;14.33;12.93;;;;;;;28.12;53.50;100593.64;1752366;82;20893;-73
2021/08/29 05:38:19;;;;;;;16.62;13.50;;;;;;;28.53;52.24;100590.42;1752447;82;21572;-73
2021/08/29 05:41:06;;;;;;;17.02;13.45;;;;;;;28.90;52.50;100595.08;1751024;82;21306;-74
2021/08/29 05:43:52;;;;;;;14.95;13.10;;;;;;;29.24;51.01;100591.73;1752246;82;21866;-74
2021/08/29 05:46:20;;;;;;;14.83;13.50;;;;;;;29.61;49.17;100589.73;1751099;82;20928;-73
2021/08/29 05:48:49;;;;;;;18.45;14.10;;;;;;;29.90;48.24;100592.36;1752261;82;20972;-74
2021/08/29 05:51:16;;;;;;;15.85;14.25;;;;;;;30.16;47.47;100578.60;1752581;81;20948;-74
2021/08/29 05:53:43;;;;;;;18.42;13.53;;;;;;;30.43;46.22;100581.61;1752302;82;20963;-75
2021/08/29 05:56:10;;;;;;;17.40;13.32;;;;;;;30.67;45.02;100574.48;1752651;82;21890;-74
2021/08/29 05:58:37;;;;;;;16.37;13.95;;;;;;;30.93;44.24;100576.08;1752279;82;21367;-74
2021/08/29 06:01:03;;;;;;;18.57;13.98;;;;;;;31.21;43.25;100582.25;1752666;82;20853;-76
2021/08/29 06:03:37;;;;;;;17.30;13.48;;;;;;;31.48;42.25;100579.19;1752127;82;20952;-74
2021/08/29 06:06:03;;;;;;;18.95;13.30;;;;;;;31.74;42.73;100583.38;1751691;82;20920;-74
2021/08/29 06:08:31;;;;;;;17.75;14.10;;;;;;;32.00;42.34;100595.19;1750732;82;21217;-74
2021/08/29 06:10:58;;;;;;;25.00;17.82;;;;;;;32.26;42.14;100582.23;1752390;82;20877;-74
2021/08/29 06:13:25;;;;;;;23.67;17.45;;;;;;;32.46;39.41;100579.14;1751966;82;21399;-75
2021/08/29 06:15:52;;;;;;;22.62;17.17;;;;;;;32.67;39.14;100576.89;1752104;82;20928;-72
2021/08/29 06:18:20;;;;;;;31.10;20.62;;;;;;;32.91;39.64;100577.66;1752261;82;20861;-74
2021/08/29 06:20:46;;;;;;;23.18;18.77;;;;;;;33.13;38.19;100575.94;1726795;82;21147;-74
2021/08/29 06:23:13;;;;;;;26.60;19.25;;;;;;;33.37;38.17;100576.66;1726651;82;20853;-73
2021/08/29 06:26:00;;;;;;;26.65;19.85;;;;;;;33.61;37.89;100565.66;1752048;82;20956;-74
2021/08/29 06:28:35;;;;;;;27.70;21.25;;;;;;;33.87;36.95;100567.45;1747835;82;21326;-75
2021/08/29 06:31:20;;;;;;;30.85;21.68;;;;;;;34.02;35.20;100558.98;1752368;82;20928;-73
2021/08/29 06:33:51;;;;;;;30.15;21.57;;;;;;;34.17;35.82;100561.66;1747000;82;21147;-74
2021/08/29 06:36:20;;;;;;;29.40;19.70;;;;;;;34.34;35.09;100550.74;1752041;82;20948;-74
2021/08/29 06:38:48;;;;;;;20.72;18.52;;;;;;;34.53;35.45;100547.16;1752196;82;20983;-74
2021/08/29 06:41:15;;;;;;;20.65;16.85;;;;;;;34.69;34.70;100550.41;1752572;82;20869;-74
2021/08/29 06:43:44;;;;;;;23.20;15.23;;;;;;;34.82;35.07;100548.66;1752306;82;20885;-74
2021/08/29 06:46:22;;;;;;;21.87;15.68;;;;;;;34.96;34.74;100551.80;1719066;81;21164;-73
2021/08/29 06:48:59;;;;;;;17.15;15.10;;;;;;;35.09;34.54;100547.85;1718876;81;21509;-73
2021/08/29 06:51:45;;;;;;;16.82;14.50;;;;;;;35.22;34.93;100542.56;1752193;82;21350;-73
2021/08/29 06:54:19;;;;;;;17.05;14.13;;;;;;;35.39;34.07;100543.24;1721457;81;20975;-74
2021/08/29 06:57:06;;;;;;;25.62;14.05;;;;;;;35.62;33.87;100544.84;1748594;82;20865;-73
2021/08/29 06:59:33;;;;;;;21.33;13.75;;;;;;;35.84;33.75;100542.53;1752303;82;21411;-73
2021/08/29 07:02:00;;;;;;;17.92;14.87;;;;;;;35.98;34.48;100545.10;1752620;82;20932;-73
2021/08/29 07:04:26;;;;;;;22.22;14.07;;;;;;;36.15;33.89;100544.94;1752267;82;21403;-73
2021/08/29 07:06:55;;;;;;;19.23;14.63;;;;;;;36.26;34.32;100545.82;1752623;82;20924;-73
2021/08/29 07:09:41;;;;;;;23.18;17.67;;;;;;;36.37;34.38;100537.95;1752219;82;20944;-73
2021/08/29 07:12:09;;;;;;;28.60;22.10;;;;;;;36.52;33.03;100537.21;1752132;82;21286;-74
2021/08/29 07:14:43;;;;;;;27.00;20.02;;;;;;;36.65;31.96;100538.11;1742290;82;20897;-75
2021/08/29 07:17:14;;;;;;;23.30;17.27;;;;;;;36.68;31.29;100538.93;1726550;82;21015;-71
2021/08/29 07:19:39;;;;;;;19.10;13.10;;;;;;;36.75;31.72;100535.13;1751997;82;21588;-73
2021/08/29 07:22:24;;;;;;;17.32;14.13;;;;;;;36.93;33.19;100534.09;1752331;82;20979;-73
2021/08/29 07:25:10;;;;;;;22.85;14.83;;;;;;;37.14;32.46;100536.89;1752218;82;21610;-73
2021/08/29 07:27:55;;;;;;;16.82;14.98;;;;;;;37.17;30.67;100536.34;1752165;82;20885;-75
2021/08/29 07:30:39;;;;;;;22.90;16.17;;;;;;;37.19;30.42;100536.08;1691606;84;21557;-74
2021/08/29 07:33:10;;;;;;;17.57;15.70;;;;;;;37.22;30.92;100534.16;1645291;86;20949;-76
2021/08/29 07:35:39;;;;;;;19.17;15.00;;;;;;;37.31;30.93;100527.89;1647880;87;21474;-79
2021/08/29 07:38:08;;;;;;;20.08;16.55;;;;;;;37.40;31.00;100535.01;1647562;87;21554;-76
2021/08/29 07:40:37;;;;;;;29.70;23.85;;;;;;;37.53;30.90;100528.14;1647646;87;20930;-76
2021/08/29 07:43:04;;;;;;;29.30;24.45;;;;;;;37.67;30.92;100527.91;1647484;87;21004;-72
2021/08/29 07:48:08;;;;;;;24.45;19.87;;;;;;;37.99;31.11;100518.53;1798499;79;23214;-72
2021/08/29 07:50:36;;;;;;;26.37;17.10;;;;;;;38.03;31.19;100518.84;1758310;81;21417;-73
2021/08/29 07:53:03;;;;;;;20.30;17.10;;;;;;;38.18;31.51;100511.10;1758746;81;21481;-73
2021/08/29 07:55:42;;;;;;;18.75;14.40;;;;;;;38.37;32.14;100506.66;1758844;81;20956;-72
2021/08/29 07:58:18;;;;;;;18.00;15.18;;;;;;;38.58;31.29;100509.31;1759750;80;20921;-71
2021/08/29 08:00:45;;;;;;;16.20;14.38;;;;;;;38.66;30.94;100507.36;1758484;80;21506;-73
2021/08/29 08:03:32;;;;;;;20.60;14.40;;;;;;;38.77;30.83;100500.72;1758175;81;20908;-73
2021/08/29 08:06:05;;;;;;;14.78;13.30;;;;;;;38.88;30.79;100494.63;1713110;81;21610;-73
2021/08/29 08:08:51;;;;;;;20.43;14.98;;;;;;;38.73;30.80;100492.26;1758267;80;20932;-73
2021/08/29 08:11:36;;;;;;;15.50;13.38;;;;;;;38.77;31.58;100492.49;1758373;81;20872;-70
2021/08/29 08:14:05;;;;;;;22.45;15.10;;;;;;;38.92;31.97;100488.28;1758479;81;21369;-68
2021/08/29 08:16:32;;;;;;;17.65;14.65;;;;;;;39.07;30.60;100487.39;1758351;81;20940;-71
2021/08/29 08:19:00;;;;;;;18.80;15.15;;;;;;;39.25;31.39;100485.06;1758215;80;21186;-75
2021/08/29 08:21:28;;;;;;;21.80;16.57;;;;;;;39.43;29.41;100479.44;1738875;81;20924;-77
2021/08/29 08:23:58;;;;;;;16.60;13.78;;;;;;;39.54;28.44;100480.41;1756051;80;20884;-77
2021/08/29 08:26:43;;;;;;;14.58;12.40;;;;;;;39.62;27.45;100471.28;1758187;81;20968;-79
2021/08/29 08:29:16;;;;;;;10.30;8.63;;;;;;;39.61;27.84;100463.60;1758383;81;21425;-73
2021/08/29 08:32:01;;;;;;;9.60;8.60;;;;;;;39.68;26.64;100461.33;1757953;80;21172;-81
2021/08/29 08:34:47;;;;;;;9.08;6.83;;;;;;;39.69;26.45;100467.09;1758419;81;20845;-82
2021/08/29 08:37:16;;;;;;;10.10;6.97;;;;;;;39.55;25.89;100455.96;1723756;82;20991;-78
2021/08/29 08:39:55;;;;;;;13.55;6.55;;;;;;;39.48;26.00;100462.35;1724126;82;20932;-77
2021/08/29 08:42:28;;;;;;;7.00;6.10;;;;;;;39.39;25.88;100455.86;1723827;82;21070;-75
2021/08/29 08:45:13;;;;;;;14.63;8.88;;;;;;;39.32;26.05;100446.56;1724705;83;21116;-77
2021/08/29 08:48:00;;;;;;;11.65;8.48;;;;;;;39.35;26.54;100442.42;1711968;82;20923;-78
2021/08/29 08:50:48;;;;;;;14.30;8.93;;;;;;;39.46;27.08;100441.23;1709357;84;21042;-74
2021/08/29 08:53:33;;;;;;;12.03;8.68;;;;;;;39.61;27.32;100435.34;1709348;82;20900;-77
2021/08/29 08:56:09;;;;;;;13.08;10.95;;;;;;;39.76;27.47;100436.55;1683443;83;20853;-78
2021/08/29 08:58:57;;;;;;;10.65;9.18;;;;;;;39.87;26.33;100436.72;1744911;80;21823;-78
2021/08/29 09:01:41;;;;;;;16.62;10.23;;;;;;;39.94;25.90;100428.94;1694791;81;20960;-77
2021/08/29 09:04:26;;;;;;;10.75;9.35;;;;;;;40.03;25.55;100425.55;1744613;82;20878;-75
2021/08/29 09:06:53;;;;;;;17.27;12.15;;;;;;;40.08;26.13;100412.55;1744448;82;20901;-77
2021/08/29 09:09:22;;;;;;;9.95;8.15;;;;;;;40.14;26.14;100416.86;1744453;81;20865;-73
2021/08/29 09:11:52;;;;;;;11.28;7.33;;;;;;;40.23;26.28;100408.78;1744681;81;20995;-73
2021/08/29 09:14:19;;;;;;;8.25;6.65;;;;;;;40.35;25.26;100401.49;1744602;82;20869;-72
2021/08/29 09:16:51;;;;;;;7.95;5.83;;;;;;;40.37;24.90;100393.20;1744452;81;20961;-72
2021/08/29 09:19:20;;;;;;;7.83;5.72;;;;;;;40.40;24.38;100395.94;1709253;84;21386;-73
2021/08/29 09:21:47;;;;;;;6.05;5.50;;;;;;;40.37;23.63;100392.39;1708743;84;20849;-72
2021/08/29 09:24:18;;;;;;;13.18;5.42;;;;;;;40.33;23.83;100395.47;1707847;82;21560;-72
2021/08/29 09:26:53;;;;;;;8.80;5.45;;;;;;;40.33;23.67;100399.59;1665864;84;20975;-72
2021/08/29 09:29:23;;;;;;;6.75;5.40;;;;;;;40.33;23.38;100391.35;1706335;84;20983;-73
2021/08/29 09:31:51;;;;;;;7.47;5.72;;;;;;;40.26;23.52;100389.51;1708713;82;21526;-72
2021/08/29 09:34:20;;;;;;;7.95;5.22;;;;;;;40.27;23.75;100403.55;1744191;81;20936;-72
2021/08/29 09:36:51;;;;;;;13.10;5.30;;;;;;;40.31;23.19;100393.58;1687249;84;21374;-73
2021/08/29 09:39:21;;;;;;;7.17;5.72;;;;;;;40.24;22.77;100391.73;1707101;83;20895;-73
2021/08/29 09:42:03;;;;;;;8.68;5.70;;;;;;;40.07;23.19;100384.02;1708088;84;21303;-74
2021/08/29 09:44:42;;;;;;;6.62;5.40;;;;;;;39.88;22.62;100387.53;1708381;84;21042;-73
2021/08/29 09:47:12;;;;;;;12.53;5.55;;;;;;;39.61;23.25;100389.48;1686455;83;20932;-72
2021/08/29 09:50:01;;;;;;;11.88;5.97;;;;;;;39.54;23.86;100395.32;1707519;82;21154;-73
2021/08/29 09:52:30;;;;;;;9.95;5.87;;;;;;;39.51;23.46;100386.31;1645171;84;20888;-73
2021/08/29 09:55:08;;;;;;;10.32;6.40;;;;;;;39.57;23.77;100382.94;1693094;84;20939;-74
2021/08/29 09:57:43;;;;;;;10.63;5.80;;;;;;;39.59;23.28;100383.47;1705290;83;20904;-75
2021/08/29 10:00:12;;;;;;;7.87;5.92;;;;;;;39.64;23.21;100386.14;1743961;81;21480;-75
2021/08/29 10:02:44;;;;;;;7.97;5.20;;;;;;;39.66;23.45;100383.92;1708759;84;21516;-73
2021/08/29 10:05:16;;;;;;;8.13;5.90;;;;;;;39.71;22.89;100374.80;1744582;81;21065;-79
2021/08/29 10:08:07;;;;;;;9.48;6.00;;;;;;;39.87;24.14;100380.42;1743568;81;20976;-76
2021/08/29 10:10:46;;;;;;;13.70;5.78;;;;;;;39.97;22.90;100378.08;1744294;81;21315;-79
2021/08/29 10:13:15;;;;;;;12.35;5.67;;;;;;;40.08;22.35;100366.41;1708775;83;20928;-74
2021/08/29 10:15:44;;;;;;;11.20;5.83;;;;;;;40.18;22.44;100372.58;1744226;81;21529;-78
2021/08/29 10:18:18;;;;;;;14.58;6.45;;;;;;;40.27;21.92;100362.34;1705397;84;20837;-74
2021/08/29 10:21:07;;;;;;;9.33;5.35;;;;;;;40.31;21.79;100366.94;1708658;82;20909;-74
2021/08/29 10:23:39;;;;;;;8.85;6.05;;;;;;;40.35;21.98;100363.02;1744352;81;20893;-78
2021/08/29 10:26:07;;;;;;;12.55;5.00;;;;;;;40.35;21.37;100356.95;1744233;81;20964;-78
2021/08/29 10:29:03;;;;;;;7.25;4.75;;;;;;;40.33;21.02;100364.71;1704881;81;21161;-75
2021/08/29 10:31:45;;;;;;;5.58;4.33;;;;;;;40.23;21.98;100354.39;1585606;89;21602;-77
2021/08/29 10:34:14;;;;;;;9.23;4.33;;;;;;;40.14;20.68;100352.30;1595384;90;20989;-76
2021/08/29 10:36:41;;;;;;;7.03;5.00;;;;;;;40.03;21.16;100347.26;1575410;90;21053;-76
2021/08/29 10:39:27;;;;;;;10.00;5.40;;;;;;;39.95;20.73;100341.85;1596061;89;20926;-76
2021/08/29 10:42:01;;;;;;;6.75;4.83;;;;;;;39.88;22.42;100348.27;1588936;90;21865;-77
2021/08/29 10:44:31;;;;;;;9.10;5.08;;;;;;;39.96;22.30;100340.76;1593089;90;20974;-82
2021/08/29 10:47:16;;;;;;;7.30;5.47;;;;;;;40.02;22.26;100345.61;1596079;89;21020;-80
2021/08/29 10:49:51;;;;;;;8.60;6.92;;;;;;;40.15;21.39;100353.11;1593506;89;21099;-79
2021/08/29 10:52:18;;;;;;;10.30;6.50;;;;;;;40.22;21.10;100352.17;1595966;89;20969;-76
2021/08/29 10:54:53;;;;;;;7.08;6.37;;;;;;;40.25;20.92;100351.59;1604815;85;21139;-74
2021/08/29 10:57:35;;;;;;;11.55;7.20;;;;;;;40.24;21.28;100347.20;1685564;85;20908;-75
2021/08/29 11:00:14;;;;;;;13.25;8.15;;;;;;;40.27;21.87;100349.41;1652359;86;20978;-78
2021/08/29 11:02:47;;;;;;;15.95;8.80;;;;;;;40.27;20.45;100349.97;1645724;87;21013;-82
2021/08/29 11:05:42;;;;;;;11.12;10.03;;;;;;;40.06;20.16;100337.84;1645756;87;20942;-76
2021/08/29 11:08:24;;;;;;;11.22;9.40;;;;;;;39.65;20.29;100337.00;1645639;87;21743;-69
2021/08/29 11:10:51;;;;;;;9.98;9.03;;;;;;;39.48;21.06;100331.17;1645598;87;20982;-82
2021/08/29 11:13:34;;;;;;;10.75;9.63;;;;;;;39.47;22.02;100327.61;1645825;87;20957;-73
2021/08/29 11:16:14;;;;;;;11.45;10.18;;;;;;;39.50;20.88;100324.27;1645633;85;21617;-71
2021/08/29 11:19:07;;;;;;;11.33;9.88;;;;;;;39.44;20.63;100315.83;1623591;87;20937;-69
2021/08/29 11:21:41;;;;;;;11.65;8.63;;;;;;;39.32;20.26;100313.48;1614485;87;21968;-74
2021/08/29 11:24:13;;;;;;;10.58;8.18;;;;;;;39.17;20.46;100313.09;1641241;87;20986;-72
2021/08/29 11:26:43;;;;;;;12.43;7.53;;;;;;;39.06;20.29;100317.05;1645719;85;20938;-72
2021/08/29 11:29:50;;;;;;;14.05;7.87;;;;;;;38.91;20.84;100317.16;1644393;85;21171;-73
2021/08/29 11:32:43;;;;;;;13.75;10.40;;;;;;;38.73;20.64;100323.66;1636740;87;20981;-72
2021/08/29 11:35:21;;;;;;;14.47;8.93;;;;;;;38.58;20.99;100317.46;1637156;87;20875;-71
2021/08/29 11:38:13;;;;;;;9.48;5.55;;;;;;;38.50;22.44;100309.31;1635062;86;20958;-74